PAL345 RPLL-RPVP
Flight info
| Callsign | PAL345 |
|---|---|
| Flight time | 0h 58m |
| Altitude | 38000 |
| Route | BUCAL2V BUCAL M646 NOMYO NOMYO2W |
| Aircraft | A20N/M-SDE2E3FGHIRWXY/LB1 |
Departure
| Time | 2026-04-23 15:47 |
|---|---|
| Airport | Ninoy Aquino International Airport (RPLL) |
Arrival
| Time | 2026-04-23 16:45 |
|---|---|
| Airport | Puerto Princesa International Airport / PAF Antonio Bautista Air Base (RPVP) |
| Time | Latitude | Longitude | Altitude | Speed | Heading |
|---|---|---|---|---|---|
| 2026-04-23 15:25 | 14.51064 | 121.01359 | 68 ft | 0 kts | 221° |
| 2026-04-23 15:33 | 14.51083 | 121.01376 | 61 ft | 4 kts | 219° |
| 2026-04-23 15:34 | 14.51104 | 121.01393 | 60 ft | 4 kts | 215° |
| 2026-04-23 15:34 | 14.51124 | 121.01405 | 64 ft | 3 kts | 195° |
| 2026-04-23 15:34 | 14.51137 | 121.01406 | 61 ft | 2 kts | 159° |
| 2026-04-23 15:34 | 14.51148 | 121.01400 | 64 ft | 2 kts | 139° |
| 2026-04-23 15:35 | 14.51156 | 121.01392 | 64 ft | 2 kts | 134° |
| 2026-04-23 15:35 | 14.51162 | 121.01386 | 61 ft | 0 kts | 133° |
| 2026-04-23 15:40 | 14.51147 | 121.01402 | 59 ft | 13 kts | 133° |
| 2026-04-23 15:40 | 14.51059 | 121.01492 | 66 ft | 18 kts | 133° |
| 2026-04-23 15:41 | 14.51002 | 121.01555 | 64 ft | 10 kts | 133° |
| 2026-04-23 15:41 | 14.50947 | 121.01615 | 68 ft | 14 kts | 133° |
| 2026-04-23 15:41 | 14.50889 | 121.01675 | 64 ft | 0 kts | 156° |
| 2026-04-23 15:41 | 14.50848 | 121.01636 | 63 ft | 19 kts | 244° |
| 2026-04-23 15:42 | 14.50764 | 121.01491 | 68 ft | 25 kts | 240° |
| 2026-04-23 15:42 | 14.50718 | 121.01410 | 63 ft | 8 kts | 240° |
| 2026-04-23 15:42 | 14.50683 | 121.01346 | 65 ft | 14 kts | 240° |
| 2026-04-23 15:42 | 14.50629 | 121.01249 | 63 ft | 17 kts | 239° |
| 2026-04-23 15:43 | 14.50564 | 121.01132 | 63 ft | 20 kts | 240° |
| 2026-04-23 15:43 | 14.50490 | 121.01001 | 63 ft | 22 kts | 239° |
| 2026-04-23 15:43 | 14.50418 | 121.00868 | 65 ft | 19 kts | 240° |
| 2026-04-23 15:43 | 14.50348 | 121.00743 | 63 ft | 21 kts | 240° |
| 2026-04-23 15:44 | 14.50270 | 121.00605 | 60 ft | 23 kts | 240° |
| 2026-04-23 15:44 | 14.50187 | 121.00454 | 65 ft | 25 kts | 239° |
| 2026-04-23 15:44 | 14.50106 | 121.00309 | 66 ft | 19 kts | 240° |
| 2026-04-23 15:44 | 14.50038 | 121.00186 | 59 ft | 21 kts | 240° |
| 2026-04-23 15:45 | 14.49973 | 121.00066 | 63 ft | 18 kts | 240° |
| 2026-04-23 15:45 | 14.49913 | 120.99974 | 65 ft | 13 kts | 211° |
| 2026-04-23 15:45 | 14.49864 | 120.99980 | 65 ft | 0 kts | 110° |
| 2026-04-23 15:45 | 14.49860 | 120.99984 | 63 ft | 4 kts | 130° |
| 2026-04-23 15:46 | 14.49799 | 121.00024 | 67 ft | 9 kts | 98° |
| 2026-04-23 15:46 | 14.49842 | 121.00111 | 65 ft | 27 kts | 59° |
| 2026-04-23 15:46 | 14.50052 | 121.00489 | 61 ft | 94 kts | 60° |
| 2026-04-23 15:46 | 14.50474 | 121.01249 | 68 ft | 147 kts | 60° |
| 2026-04-23 15:47 | 14.51001 | 121.02194 | 526 ft | 152 kts | 60° |
| 2026-04-23 15:47 | 14.51552 | 121.03161 | 1061 ft | 161 kts | 61° |
| 2026-04-23 15:47 | 14.52111 | 121.04158 | 1735 ft | 158 kts | 60° |
| 2026-04-23 15:47 | 14.52662 | 121.05081 | 2484 ft | 145 kts | 59° |
| 2026-04-23 15:48 | 14.53201 | 121.06016 | 2921 ft | 158 kts | 62° |
| 2026-04-23 15:48 | 14.53687 | 121.07047 | 3513 ft | 163 kts | 76° |
| 2026-04-23 15:48 | 14.53613 | 121.08245 | 3941 ft | 180 kts | 116° |
| 2026-04-23 15:48 | 14.52717 | 121.09193 | 4478 ft | 195 kts | 158° |
| 2026-04-23 15:49 | 14.51426 | 121.09754 | 5106 ft | 220 kts | 152° |
| 2026-04-23 15:49 | 14.50014 | 121.10626 | 5549 ft | 251 kts | 147° |
| 2026-04-23 15:49 | 14.48507 | 121.11601 | 6235 ft | 262 kts | 147° |
| 2026-04-23 15:49 | 14.46894 | 121.12630 | 6761 ft | 279 kts | 147° |
| 2026-04-23 15:50 | 14.45160 | 121.13559 | 7585 ft | 283 kts | 163° |
| 2026-04-23 15:50 | 14.43200 | 121.13714 | 8440 ft | 287 kts | 188° |
| 2026-04-23 15:50 | 14.41260 | 121.13153 | 9292 ft | 291 kts | 197° |
| 2026-04-23 15:50 | 14.39326 | 121.12503 | 10135 ft | 293 kts | 197° |
| 2026-04-23 15:51 | 14.37329 | 121.11831 | 10539 ft | 313 kts | 197° |
| 2026-04-23 15:51 | 14.35168 | 121.11108 | 10758 ft | 337 kts | 197° |
| 2026-04-23 15:51 | 14.32921 | 121.10363 | 11214 ft | 348 kts | 197° |
| 2026-04-23 15:51 | 14.30568 | 121.09587 | 11950 ft | 352 kts | 197° |
| 2026-04-23 15:52 | 14.28240 | 121.08821 | 12648 ft | 356 kts | 197° |
| 2026-04-23 15:52 | 14.25900 | 121.07925 | 13338 ft | 361 kts | 208° |
| 2026-04-23 15:52 | 14.23804 | 121.06476 | 13980 ft | 366 kts | 216° |
| 2026-04-23 15:52 | 14.21749 | 121.04913 | 14604 ft | 369 kts | 217° |
| 2026-04-23 15:53 | 14.19682 | 121.03322 | 15225 ft | 372 kts | 217° |
| 2026-04-23 15:53 | 14.17597 | 121.01723 | 15821 ft | 375 kts | 217° |
| 2026-04-23 15:53 | 14.15491 | 121.00118 | 16414 ft | 379 kts | 217° |
| 2026-04-23 15:53 | 14.13363 | 120.98503 | 16983 ft | 382 kts | 217° |
| 2026-04-23 15:54 | 14.11202 | 120.96867 | 17551 ft | 385 kts | 216° |
| 2026-04-23 15:54 | 14.09029 | 120.95224 | 18099 ft | 389 kts | 217° |
| 2026-04-23 15:54 | 14.06838 | 120.93568 | 18600 ft | 392 kts | 216° |
| 2026-04-23 15:54 | 14.04637 | 120.91904 | 19121 ft | 393 kts | 216° |
| 2026-04-23 15:55 | 14.02423 | 120.90230 | 19537 ft | 397 kts | 216° |
| 2026-04-23 15:55 | 14.00197 | 120.88548 | 19656 ft | 397 kts | 216° |
| 2026-04-23 15:55 | 13.97966 | 120.86862 | 19764 ft | 398 kts | 216° |
| 2026-04-23 15:55 | 13.95758 | 120.85194 | 19863 ft | 398 kts | 216° |
| 2026-04-23 15:56 | 13.93526 | 120.83507 | 19923 ft | 399 kts | 216° |
| 2026-04-23 15:56 | 13.91284 | 120.81815 | 19973 ft | 401 kts | 216° |
| 2026-04-23 15:56 | 13.89025 | 120.80110 | 20441 ft | 402 kts | 216° |
| 2026-04-23 15:56 | 13.86778 | 120.78413 | 20988 ft | 403 kts | 216° |
| 2026-04-23 15:57 | 13.84491 | 120.76687 | 21469 ft | 406 kts | 216° |
| 2026-04-23 15:57 | 13.82208 | 120.74965 | 21946 ft | 409 kts | 216° |
| 2026-04-23 15:57 | 13.79910 | 120.73232 | 22419 ft | 411 kts | 216° |
| 2026-04-23 15:57 | 13.77595 | 120.71486 | 22901 ft | 414 kts | 216° |
| 2026-04-23 15:58 | 13.77131 | 120.71136 | 22997 ft | 414 kts | 216° |
| 2026-04-23 15:58 | 13.75562 | 120.69954 | 23304 ft | 416 kts | 216° |
| 2026-04-23 15:58 | 13.73225 | 120.68193 | 23737 ft | 418 kts | 216° |
| 2026-04-23 15:58 | 13.70870 | 120.66418 | 24128 ft | 421 kts | 216° |
| 2026-04-23 15:59 | 13.68500 | 120.64633 | 24521 ft | 423 kts | 216° |
| 2026-04-23 15:59 | 13.66925 | 120.63447 | 24775 ft | 424 kts | 216° |
| 2026-04-23 15:59 | 13.63726 | 120.61038 | 25278 ft | 428 kts | 216° |
| 2026-04-23 15:59 | 13.61310 | 120.59235 | 25661 ft | 430 kts | 214° |
| 2026-04-23 16:00 | 13.58747 | 120.57639 | 26020 ft | 432 kts | 207° |
| 2026-04-23 16:00 | 13.56029 | 120.56307 | 26371 ft | 434 kts | 205° |
| 2026-04-23 16:00 | 13.53273 | 120.54990 | 26721 ft | 437 kts | 205° |
| 2026-04-23 16:00 | 13.50510 | 120.53663 | 27065 ft | 439 kts | 205° |
| 2026-04-23 16:01 | 13.47736 | 120.52327 | 27409 ft | 441 kts | 205° |
| 2026-04-23 16:01 | 13.44947 | 120.50983 | 27762 ft | 443 kts | 205° |
| 2026-04-23 16:01 | 13.42148 | 120.49636 | 28102 ft | 446 kts | 205° |
| 2026-04-23 16:01 | 13.39334 | 120.48282 | 28443 ft | 448 kts | 205° |
| 2026-04-23 16:02 | 13.36504 | 120.46922 | 28770 ft | 450 kts | 205° |
| 2026-04-23 16:02 | 13.34626 | 120.46019 | 28975 ft | 451 kts | 205° |
| 2026-04-23 16:02 | 13.30839 | 120.44198 | 29381 ft | 454 kts | 205° |
| 2026-04-23 16:02 | 13.27969 | 120.42820 | 29682 ft | 456 kts | 205° |
| 2026-04-23 16:03 | 13.25081 | 120.41433 | 29969 ft | 459 kts | 205° |
| 2026-04-23 16:03 | 13.23157 | 120.40509 | 30143 ft | 460 kts | 205° |
| 2026-04-23 16:03 | 13.19272 | 120.38644 | 30497 ft | 463 kts | 205° |
| 2026-04-23 16:03 | 13.16349 | 120.37241 | 30756 ft | 464 kts | 205° |
| 2026-04-23 16:04 | 13.13452 | 120.35851 | 31034 ft | 466 kts | 205° |
| 2026-04-23 16:04 | 13.10512 | 120.34441 | 31371 ft | 466 kts | 205° |
| 2026-04-23 16:04 | 13.07574 | 120.33032 | 31744 ft | 465 kts | 205° |
| 2026-04-23 16:04 | 13.05633 | 120.32102 | 31976 ft | 464 kts | 205° |
| 2026-04-23 16:05 | 13.02704 | 120.30699 | 32330 ft | 463 kts | 205° |
| 2026-04-23 16:05 | 12.99791 | 120.29303 | 32675 ft | 462 kts | 206° |
| 2026-04-23 16:05 | 12.96877 | 120.27907 | 33015 ft | 462 kts | 206° |
| 2026-04-23 16:05 | 12.93965 | 120.26513 | 33344 ft | 461 kts | 206° |
| 2026-04-23 16:06 | 12.91060 | 120.25121 | 33673 ft | 460 kts | 206° |
| 2026-04-23 16:06 | 12.88163 | 120.23735 | 33989 ft | 459 kts | 206° |
| 2026-04-23 16:06 | 12.85271 | 120.22351 | 34256 ft | 458 kts | 206° |
| 2026-04-23 16:06 | 12.82387 | 120.20971 | 34531 ft | 457 kts | 206° |
| 2026-04-23 16:07 | 12.79513 | 120.19596 | 34778 ft | 456 kts | 206° |
| 2026-04-23 16:07 | 12.76636 | 120.18219 | 35034 ft | 456 kts | 206° |
| 2026-04-23 16:07 | 12.73764 | 120.16846 | 35289 ft | 455 kts | 206° |
| 2026-04-23 16:07 | 12.70891 | 120.15473 | 35550 ft | 454 kts | 206° |
| 2026-04-23 16:08 | 12.68030 | 120.14106 | 35810 ft | 453 kts | 206° |
| 2026-04-23 16:08 | 12.65212 | 120.12759 | 36056 ft | 452 kts | 206° |
| 2026-04-23 16:08 | 12.62362 | 120.11398 | 36304 ft | 451 kts | 206° |
| 2026-04-23 16:08 | 12.59506 | 120.10034 | 36558 ft | 451 kts | 207° |
| 2026-04-23 16:09 | 12.56671 | 120.08680 | 36797 ft | 450 kts | 207° |
| 2026-04-23 16:09 | 12.53835 | 120.07327 | 37026 ft | 449 kts | 207° |
| 2026-04-23 16:09 | 12.50998 | 120.05973 | 37252 ft | 449 kts | 207° |
| 2026-04-23 16:09 | 12.48166 | 120.04622 | 37489 ft | 448 kts | 207° |
| 2026-04-23 16:10 | 12.45346 | 120.03277 | 37703 ft | 447 kts | 207° |
| 2026-04-23 16:10 | 12.42524 | 120.01931 | 37875 ft | 447 kts | 207° |
| 2026-04-23 16:10 | 12.39711 | 120.00590 | 37906 ft | 446 kts | 207° |
| 2026-04-23 16:11 | 12.34133 | 119.97931 | 37910 ft | 444 kts | 207° |
| 2026-04-23 16:11 | 12.28522 | 119.95258 | 37906 ft | 444 kts | 207° |
| 2026-04-23 16:12 | 12.22913 | 119.92587 | 37908 ft | 444 kts | 207° |
| 2026-04-23 16:12 | 12.17311 | 119.89921 | 37906 ft | 444 kts | 207° |
| 2026-04-23 16:13 | 12.11713 | 119.87258 | 37905 ft | 443 kts | 207° |
| 2026-04-23 16:13 | 12.03324 | 119.83270 | 37900 ft | 443 kts | 207° |
| 2026-04-23 16:14 | 11.97745 | 119.80619 | 37900 ft | 442 kts | 207° |
| 2026-04-23 16:14 | 11.92166 | 119.77969 | 37897 ft | 442 kts | 207° |
| 2026-04-23 16:15 | 11.86595 | 119.75325 | 37891 ft | 441 kts | 207° |
| 2026-04-23 16:15 | 11.81025 | 119.72681 | 37896 ft | 441 kts | 207° |
| 2026-04-23 16:16 | 11.75489 | 119.70055 | 37631 ft | 442 kts | 207° |
| 2026-04-23 16:16 | 11.72698 | 119.68731 | 37379 ft | 442 kts | 207° |
| 2026-04-23 16:16 | 11.69901 | 119.67405 | 37134 ft | 443 kts | 207° |
| 2026-04-23 16:17 | 11.67097 | 119.66088 | 36878 ft | 444 kts | 206° |
| 2026-04-23 16:17 | 11.64286 | 119.64784 | 36624 ft | 444 kts | 206° |
| 2026-04-23 16:17 | 11.61467 | 119.63480 | 36381 ft | 445 kts | 206° |
| 2026-04-23 16:17 | 11.58645 | 119.62174 | 36138 ft | 446 kts | 206° |
| 2026-04-23 16:18 | 11.55816 | 119.60863 | 35896 ft | 446 kts | 206° |
| 2026-04-23 16:18 | 11.53025 | 119.59568 | 35661 ft | 447 kts | 206° |
| 2026-04-23 16:18 | 11.50194 | 119.58255 | 35429 ft | 448 kts | 206° |
| 2026-04-23 16:18 | 11.47352 | 119.56936 | 35191 ft | 448 kts | 206° |
| 2026-04-23 16:19 | 11.44512 | 119.55619 | 34950 ft | 449 kts | 206° |
| 2026-04-23 16:19 | 11.41662 | 119.54297 | 34728 ft | 450 kts | 206° |
| 2026-04-23 16:19 | 11.38807 | 119.52974 | 34502 ft | 450 kts | 206° |
| 2026-04-23 16:19 | 11.35951 | 119.51650 | 34275 ft | 451 kts | 206° |
| 2026-04-23 16:20 | 11.33090 | 119.50324 | 34050 ft | 452 kts | 206° |
| 2026-04-23 16:20 | 11.30231 | 119.49000 | 33816 ft | 452 kts | 206° |
| 2026-04-23 16:20 | 11.27400 | 119.47688 | 33564 ft | 453 kts | 205° |
| 2026-04-23 16:20 | 11.24528 | 119.46358 | 33307 ft | 454 kts | 205° |
| 2026-04-23 16:21 | 11.21643 | 119.45022 | 33059 ft | 456 kts | 205° |
| 2026-04-23 16:21 | 11.18755 | 119.43685 | 32770 ft | 457 kts | 205° |
| 2026-04-23 16:21 | 11.15853 | 119.42342 | 32103 ft | 460 kts | 205° |
| 2026-04-23 16:21 | 11.12916 | 119.40981 | 31153 ft | 467 kts | 205° |
| 2026-04-23 16:22 | 11.09952 | 119.39610 | 30485 ft | 466 kts | 205° |
| 2026-04-23 16:22 | 11.07025 | 119.38255 | 29966 ft | 460 kts | 204° |
| 2026-04-23 16:22 | 11.04114 | 119.36909 | 29311 ft | 456 kts | 204° |
| 2026-04-23 16:22 | 11.01238 | 119.35580 | 28749 ft | 451 kts | 204° |
| 2026-04-23 16:23 | 10.98392 | 119.34265 | 28151 ft | 447 kts | 204° |
| 2026-04-23 16:23 | 10.95575 | 119.32963 | 27579 ft | 443 kts | 204° |
| 2026-04-23 16:23 | 10.92781 | 119.31672 | 27004 ft | 439 kts | 204° |
| 2026-04-23 16:23 | 10.90014 | 119.30395 | 26420 ft | 435 kts | 204° |
| 2026-04-23 16:24 | 10.87262 | 119.29124 | 25857 ft | 432 kts | 204° |
| 2026-04-23 16:24 | 10.84531 | 119.27863 | 25288 ft | 429 kts | 204° |
| 2026-04-23 16:24 | 10.81819 | 119.26612 | 24706 ft | 427 kts | 204° |
| 2026-04-23 16:24 | 10.79150 | 119.25380 | 24138 ft | 425 kts | 204° |
| 2026-04-23 16:25 | 10.76469 | 119.24144 | 23576 ft | 423 kts | 203° |
| 2026-04-23 16:25 | 10.73794 | 119.22910 | 22924 ft | 421 kts | 203° |
| 2026-04-23 16:25 | 10.71147 | 119.21690 | 22431 ft | 415 kts | 203° |
| 2026-04-23 16:25 | 10.68529 | 119.20483 | 21870 ft | 411 kts | 204° |
| 2026-04-23 16:26 | 10.65937 | 119.19289 | 21315 ft | 407 kts | 204° |
| 2026-04-23 16:26 | 10.63364 | 119.18103 | 20763 ft | 404 kts | 204° |
| 2026-04-23 16:26 | 10.60433 | 119.16752 | 20107 ft | 401 kts | 204° |
| 2026-04-23 16:26 | 10.57897 | 119.15584 | 19572 ft | 398 kts | 204° |
| 2026-04-23 16:27 | 10.55373 | 119.14422 | 19022 ft | 396 kts | 204° |
| 2026-04-23 16:27 | 10.52865 | 119.13269 | 18471 ft | 395 kts | 204° |
| 2026-04-23 16:27 | 10.50366 | 119.12120 | 17887 ft | 393 kts | 204° |
| 2026-04-23 16:27 | 10.47889 | 119.10980 | 17341 ft | 389 kts | 204° |
| 2026-04-23 16:28 | 10.45435 | 119.09852 | 16801 ft | 385 kts | 205° |
| 2026-04-23 16:28 | 10.43008 | 119.08735 | 16248 ft | 381 kts | 205° |
| 2026-04-23 16:28 | 10.41412 | 119.08000 | 15901 ft | 379 kts | 205° |
| 2026-04-23 16:28 | 10.39015 | 119.06897 | 15345 ft | 377 kts | 205° |
| 2026-04-23 16:29 | 10.35868 | 119.05437 | 14627 ft | 374 kts | 207° |
| 2026-04-23 16:29 | 10.33635 | 119.04116 | 14096 ft | 372 kts | 215° |
| 2026-04-23 16:29 | 10.31561 | 119.02562 | 13534 ft | 370 kts | 217° |
| 2026-04-23 16:29 | 10.29512 | 119.01014 | 13039 ft | 365 kts | 217° |
| 2026-04-23 16:30 | 10.27478 | 118.99483 | 12508 ft | 361 kts | 216° |
| 2026-04-23 16:30 | 10.26145 | 118.98483 | 12171 ft | 358 kts | 216° |
| 2026-04-23 16:30 | 10.24149 | 118.96986 | 11664 ft | 355 kts | 216° |
| 2026-04-23 16:30 | 10.22169 | 118.95502 | 11158 ft | 352 kts | 216° |
| 2026-04-23 16:31 | 10.20204 | 118.94029 | 10657 ft | 349 kts | 216° |
| 2026-04-23 16:31 | 10.18257 | 118.92569 | 10241 ft | 345 kts | 216° |
| 2026-04-23 16:31 | 10.15756 | 118.90707 | 10022 ft | 328 kts | 213° |
| 2026-04-23 16:31 | 10.13717 | 118.89826 | 9914 ft | 313 kts | 190° |
| 2026-04-23 16:32 | 10.12279 | 118.89730 | 9906 ft | 302 kts | 175° |
| 2026-04-23 16:32 | 10.10257 | 118.90168 | 9634 ft | 295 kts | 164° |
| 2026-04-23 16:32 | 10.08286 | 118.90754 | 9219 ft | 294 kts | 163° |
| 2026-04-23 16:32 | 10.06329 | 118.91346 | 8816 ft | 293 kts | 163° |
| 2026-04-23 16:33 | 10.04402 | 118.91927 | 8441 ft | 292 kts | 163° |
| 2026-04-23 16:33 | 10.02464 | 118.92507 | 8086 ft | 290 kts | 163° |
| 2026-04-23 16:33 | 10.00526 | 118.93083 | 7683 ft | 289 kts | 163° |
| 2026-04-23 16:33 | 9.98605 | 118.93652 | 7325 ft | 287 kts | 163° |
| 2026-04-23 16:34 | 9.96691 | 118.94220 | 6966 ft | 285 kts | 162° |
| 2026-04-23 16:34 | 9.94790 | 118.94786 | 6596 ft | 283 kts | 162° |
| 2026-04-23 16:34 | 9.92904 | 118.95348 | 6223 ft | 282 kts | 162° |
| 2026-04-23 16:34 | 9.91031 | 118.95907 | 5868 ft | 279 kts | 162° |
| 2026-04-23 16:35 | 9.89192 | 118.96454 | 5470 ft | 278 kts | 162° |
| 2026-04-23 16:35 | 9.87343 | 118.97005 | 5097 ft | 276 kts | 162° |
| 2026-04-23 16:35 | 9.85504 | 118.97552 | 4727 ft | 275 kts | 162° |
| 2026-04-23 16:35 | 9.83673 | 118.98097 | 4360 ft | 273 kts | 162° |
| 2026-04-23 16:36 | 9.81830 | 118.98557 | 3961 ft | 273 kts | 170° |
| 2026-04-23 16:36 | 9.79935 | 118.98666 | 3570 ft | 273 kts | 181° |
| 2026-04-23 16:36 | 9.78039 | 118.98563 | 3219 ft | 272 kts | 181° |
| 2026-04-23 16:36 | 9.76161 | 118.98421 | 2860 ft | 270 kts | 191° |
| 2026-04-23 16:37 | 9.74480 | 118.97621 | 2593 ft | 266 kts | 220° |
| 2026-04-23 16:37 | 9.73419 | 118.96151 | 2480 ft | 255 kts | 249° |
| 2026-04-23 16:37 | 9.73204 | 118.94436 | 2472 ft | 240 kts | 273° |
| 2026-04-23 16:37 | 9.73336 | 118.92804 | 2454 ft | 224 kts | 275° |
| 2026-04-23 16:38 | 9.73471 | 118.91301 | 2462 ft | 208 kts | 274° |
| 2026-04-23 16:38 | 9.73579 | 118.89891 | 2490 ft | 191 kts | 273° |
| 2026-04-23 16:38 | 9.73656 | 118.88632 | 2445 ft | 167 kts | 272° |
| 2026-04-23 16:38 | 9.73714 | 118.87501 | 2274 ft | 153 kts | 272° |
| 2026-04-23 16:39 | 9.73761 | 118.86470 | 2075 ft | 141 kts | 271° |
| 2026-04-23 16:39 | 9.73802 | 118.85472 | 1851 ft | 143 kts | 271° |
| 2026-04-23 16:39 | 9.73844 | 118.84471 | 1613 ft | 140 kts | 271° |
| 2026-04-23 16:39 | 9.73886 | 118.83485 | 1372 ft | 140 kts | 271° |
| 2026-04-23 16:40 | 9.73928 | 118.82498 | 1128 ft | 139 kts | 271° |
| 2026-04-23 16:40 | 9.73971 | 118.81521 | 899 ft | 138 kts | 271° |
| 2026-04-23 16:40 | 9.74013 | 118.80563 | 694 ft | 137 kts | 271° |
| 2026-04-23 16:40 | 9.74055 | 118.79601 | 671 ft | 137 kts | 271° |
| 2026-04-23 16:41 | 9.74097 | 118.78632 | 669 ft | 137 kts | 271° |
| 2026-04-23 16:41 | 9.74261 | 118.77688 | 658 ft | 138 kts | 301° |
| 2026-04-23 16:41 | 9.74948 | 118.76992 | 672 ft | 142 kts | 317° |
| 2026-04-23 16:41 | 9.75678 | 118.76338 | 668 ft | 140 kts | 317° |
| 2026-04-23 16:42 | 9.76406 | 118.75686 | 662 ft | 139 kts | 317° |
| 2026-04-23 16:42 | 9.77122 | 118.75022 | 659 ft | 140 kts | 310° |
| 2026-04-23 16:42 | 9.77411 | 118.74114 | 684 ft | 138 kts | 272° |
| 2026-04-23 16:42 | 9.77467 | 118.73155 | 658 ft | 136 kts | 272° |
| 2026-04-23 16:43 | 9.77522 | 118.72193 | 659 ft | 136 kts | 272° |
| 2026-04-23 16:43 | 9.77501 | 118.71230 | 651 ft | 137 kts | 249° |
| 2026-04-23 16:43 | 9.76851 | 118.70589 | 668 ft | 136 kts | 195° |
| 2026-04-23 16:43 | 9.75962 | 118.70754 | 669 ft | 134 kts | 141° |
| 2026-04-23 16:44 | 9.75387 | 118.71508 | 656 ft | 137 kts | 130° |
| 2026-04-23 16:44 | 9.74735 | 118.72201 | 522 ft | 135 kts | 119° |
| 2026-04-23 16:44 | 9.74397 | 118.73094 | 430 ft | 137 kts | 103° |
| 2026-04-23 16:44 | 9.74297 | 118.74064 | 276 ft | 139 kts | 93° |
| 2026-04-23 16:45 | 9.74253 | 118.75029 | 99 ft | 136 kts | 93° |
| 2026-04-23 16:45 | 9.74214 | 118.75849 | 71 ft | 80 kts | 92° |
| 2026-04-23 16:45 | 9.74202 | 118.76146 | 78 ft | 21 kts | 92° |
| 2026-04-23 16:45 | 9.74199 | 118.76240 | 77 ft | 11 kts | 91° |
| 2026-04-23 16:46 | 9.74196 | 118.76338 | 78 ft | 14 kts | 92° |
| 2026-04-23 16:46 | 9.74210 | 118.76393 | 74 ft | 13 kts | 72° |
| 2026-04-23 16:46 | 9.74190 | 118.76410 | 73 ft | 3 kts | 227° |
| 2026-04-23 16:46 | 9.74193 | 118.76330 | 78 ft | 19 kts | 276° |
| 2026-04-23 16:47 | 9.74201 | 118.76181 | 78 ft | 23 kts | 274° |
| 2026-04-23 16:47 | 9.74208 | 118.76014 | 78 ft | 25 kts | 273° |
| 2026-04-23 16:47 | 9.74216 | 118.75848 | 78 ft | 22 kts | 271° |
| 2026-04-23 16:47 | 9.74222 | 118.75686 | 72 ft | 24 kts | 272° |
| 2026-04-23 16:48 | 9.74230 | 118.75513 | 83 ft | 25 kts | 273° |
| 2026-04-23 16:48 | 9.74239 | 118.75350 | 82 ft | 20 kts | 273° |
| 2026-04-23 16:48 | 9.74248 | 118.75267 | 82 ft | 9 kts | 303° |
| 2026-04-23 16:48 | 9.74310 | 118.75254 | 81 ft | 11 kts | 359° |
| 2026-04-23 16:49 | 9.74365 | 118.75255 | 86 ft | 13 kts | 1° |
| 2026-04-23 16:49 | 9.74411 | 118.75160 | 82 ft | 15 kts | 271° |
| 2026-04-23 16:49 | 9.74423 | 118.75070 | 82 ft | 12 kts | 301° |
| 2026-04-23 16:49 | 9.74491 | 118.75058 | 83 ft | 7 kts | 1° |
| 2026-04-23 16:50 | 9.74509 | 118.75059 | 86 ft | 0 kts | 1° |